sensor_id;sensor_type;location;lat;lon;timestamp;pressure;altitude;pressure_sealevel;temperature;humidity
55347;BME280;41218;55.700;38.270;2023-03-11T00:03:29;99399.34;;;-6.97;63.53
55347;BME280;41218;55.700;38.270;2023-03-11T00:08:31;99416.03;;;-6.90;63.86
55347;BME280;41218;55.700;38.270;2023-03-11T00:13:31;99394.78;;;-6.92;63.71
55347;BME280;41218;55.700;38.270;2023-03-11T00:18:32;99402.59;;;-6.90;63.75
55347;BME280;41218;55.700;38.270;2023-03-11T00:23:32;99399.59;;;-6.94;64.31
55347;BME280;41218;55.700;38.270;2023-03-11T00:28:34;99405.81;;;-6.93;64.16
55347;BME280;41218;55.700;38.270;2023-03-11T00:33:35;99404.72;;;-6.92;63.97
55347;BME280;41218;55.700;38.270;2023-03-11T00:38:36;99396.66;;;-6.92;64.16
55347;BME280;41218;55.700;38.270;2023-03-11T00:43:36;99393.44;;;-6.94;63.70
55347;BME280;41218;55.700;38.270;2023-03-11T00:48:37;99398.00;;;-6.90;64.25
55347;BME280;41218;55.700;38.270;2023-03-11T00:53:37;99394.53;;;-6.95;63.80
55347;BME280;41218;55.700;38.270;2023-03-11T00:58:39;99402.03;;;-6.92;63.46
55347;BME280;41218;55.700;38.270;2023-03-11T01:03:40;99395.03;;;-6.98;64.15
55347;BME280;41218;55.700;38.270;2023-03-11T01:08:40;99404.72;;;-6.92;64.29
55347;BME280;41218;55.700;38.270;2023-03-11T01:13:41;99402.31;;;-6.94;64.08
55347;BME280;41218;55.700;38.270;2023-03-11T01:18:42;99399.59;;;-6.94;63.38
55347;BME280;41218;55.700;38.270;2023-03-11T01:23:42;99404.19;;;-6.94;64.28
55347;BME280;41218;55.700;38.270;2023-03-11T01:28:42;99413.03;;;-6.94;64.09
55347;BME280;41218;55.700;38.270;2023-03-11T01:33:43;99409.81;;;-6.96;64.26
55347;BME280;41218;55.700;38.270;2023-03-11T01:38:43;99402.31;;;-6.94;63.67
55347;BME280;41218;55.700;38.270;2023-03-11T01:48:48;99405.53;;;-6.92;63.61
55347;BME280;41218;55.700;38.270;2023-03-11T01:53:49;99408.22;;;-6.92;63.66
55347;BME280;41218;55.700;38.270;2023-03-11T01:58:51;99393.69;;;-6.96;64.18
55347;BME280;41218;55.700;38.270;2023-03-11T02:03:54;99405.53;;;-6.92;63.96
55347;BME280;41218;55.700;38.270;2023-03-11T02:08:54;99410.09;;;-6.92;63.93
55347;BME280;41218;55.700;38.270;2023-03-11T02:13:58;99401.78;;;-6.91;64.02
55347;BME280;41218;55.700;38.270;2023-03-11T02:19:11;99409.06;;;-6.91;64.16
55347;BME280;41218;55.700;38.270;2023-03-11T02:24:28;99399.34;;;-6.92;63.83
55347;BME280;41218;55.700;38.270;2023-03-11T02:29:32;99401.53;;;-6.89;64.37
55347;BME280;41218;55.700;38.270;2023-03-11T02:34:35;99407.97;;;-6.90;64.24
55347;BME280;41218;55.700;38.270;2023-03-11T02:39:44;99405.81;;;-6.93;64.27
55347;BME280;41218;55.700;38.270;2023-03-11T02:44:49;99396.41;;;-6.91;64.32
55347;BME280;41218;55.700;38.270;2023-03-11T02:49:52;99396.41;;;-6.86;64.66
55347;BME280;41218;55.700;38.270;2023-03-11T02:54:54;99402.06;;;-6.82;64.04
55347;BME280;41218;55.700;38.270;2023-03-11T02:59:54;99400.19;;;-6.81;64.52
55347;BME280;41218;55.700;38.270;2023-03-11T03:04:55;99397.25;;;-6.85;64.47
55347;BME280;41218;55.700;38.270;2023-03-11T03:09:55;99410.97;;;-6.76;64.37
55347;BME280;41218;55.700;38.270;2023-03-11T03:14:55;99409.88;;;-6.75;64.72
55347;BME280;41218;55.700;38.270;2023-03-11T03:19:57;99400.22;;;-6.71;64.58
55347;BME280;41218;55.700;38.270;2023-03-11T03:24:57;99400.22;;;-6.71;64.43
55347;BME280;41218;55.700;38.270;2023-03-11T03:29:58;99403.19;;;-6.68;64.32
55347;BME280;41218;55.700;38.270;2023-03-11T03:34:59;99391.66;;;-6.68;64.67
55347;BME280;41218;55.700;38.270;2023-03-11T03:40:01;99403.22;;;-6.62;64.84
55347;BME280;41218;55.700;38.270;2023-03-11T03:45:04;99409.41;;;-6.62;65.07
55347;BME280;41218;55.700;38.270;2023-03-11T03:50:07;99407.28;;;-6.55;64.61
55347;BME280;41218;55.700;38.270;2023-03-11T03:55:08;99404.59;;;-6.50;65.08
55347;BME280;41218;55.700;38.270;2023-03-11T04:00:09;99407.31;;;-6.45;65.26
55347;BME280;41218;55.700;38.270;2023-03-11T04:05:11;99388.19;;;-6.43;65.07
55347;BME280;41218;55.700;38.270;2023-03-11T04:10:12;99391.69;;;-6.37;65.50
55347;BME280;41218;55.700;38.270;2023-03-11T04:15:13;99390.88;;;-6.33;65.38
55347;BME280;41218;55.700;38.270;2023-03-11T04:20:13;99387.69;;;-6.30;65.23
55347;BME280;41218;55.700;38.270;2023-03-11T04:25:14;99387.13;;;-6.27;65.55
55347;BME280;41218;55.700;38.270;2023-03-11T04:30:15;99371.28;;;-6.23;65.52
55347;BME280;41218;55.700;38.270;2023-03-11T04:35:15;99370.75;;;-6.20;65.84
55347;BME280;41218;55.700;38.270;2023-03-11T04:40:16;99358.91;;;-6.19;65.62
55347;BME280;41218;55.700;38.270;2023-03-11T04:45:17;99368.84;;;-6.09;65.74
55347;BME280;41218;55.700;38.270;2023-03-11T04:50:18;99361.59;;;-6.03;66.58
55347;BME280;41218;55.700;38.270;2023-03-11T04:55:18;99350.03;;;-5.99;66.18
55347;BME280;41218;55.700;38.270;2023-03-11T05:00:19;99350.50;;;-5.87;66.48
55347;BME280;41218;55.700;38.270;2023-03-11T05:05:24;99353.75;;;-5.79;66.88
55347;BME280;41218;55.700;38.270;2023-03-11T05:10:24;99341.88;;;-5.73;66.37
55347;BME280;41218;55.700;38.270;2023-03-11T05:15:25;99354.00;;;-5.66;66.91
55347;BME280;41218;55.700;38.270;2023-03-11T05:20:25;99339.72;;;-5.66;66.96
55347;BME280;41218;55.700;38.270;2023-03-11T05:25:26;99341.00;;;-5.48;66.93
55347;BME280;41218;55.700;38.270;2023-03-11T05:30:26;99341.00;;;-5.43;67.05
55347;BME280;41218;55.700;38.270;2023-03-11T05:35:27;99336.13;;;-5.31;66.84
55347;BME280;41218;55.700;38.270;2023-03-11T05:40:28;99329.91;;;-5.21;67.24
55347;BME280;41218;55.700;38.270;2023-03-11T05:45:28;99322.88;;;-5.17;66.91
55347;BME280;41218;55.700;38.270;2023-03-11T05:50:29;99339.53;;;-5.05;67.69
55347;BME280;41218;55.700;38.270;2023-03-11T05:55:29;99330.03;;;-4.97;67.07
55347;BME280;41218;55.700;38.270;2023-03-11T06:00:30;99330.53;;;-4.90;66.70
55347;BME280;41218;55.700;38.270;2023-03-11T06:05:31;99322.13;;;-4.83;66.91
55347;BME280;41218;55.700;38.270;2023-03-11T06:10:31;99328.88;;;-4.80;67.48
55347;BME280;41218;55.700;38.270;2023-03-11T06:15:33;99338.56;;;-4.74;67.19
55347;BME280;41218;55.700;38.270;2023-03-11T06:20:34;99335.81;;;-4.69;66.77
55347;BME280;41218;55.700;38.270;2023-03-11T06:25:35;99324.69;;;-4.57;66.89
55347;BME280;41218;55.700;38.270;2023-03-11T06:30:36;99322.19;;;-4.49;67.17
55347;BME280;41218;55.700;38.270;2023-03-11T06:35:36;99320.81;;;-4.46;67.19
55347;BME280;41218;55.700;38.270;2023-03-11T06:40:37;99325.13;;;-4.45;67.34
55347;BME280;41218;55.700;38.270;2023-03-11T06:45:37;99323.22;;;-4.39;66.81
55347;BME280;41218;55.700;38.270;2023-03-11T06:50:38;99329.34;;;-4.29;67.07
55347;BME280;41218;55.700;38.270;2023-03-11T06:55:38;99319.03;;;-4.21;67.19
55347;BME280;41218;55.700;38.270;2023-03-11T07:00:39;99314.97;;;-4.24;66.93
55347;BME280;41218;55.700;38.270;2023-03-11T07:05:39;99314.19;;;-4.25;66.63
55347;BME280;41218;55.700;38.270;2023-03-11T07:10:40;99313.63;;;-4.21;66.64
55347;BME280;41218;55.700;38.270;2023-03-11T07:15:40;99312.25;;;-4.19;66.79
55347;BME280;41218;55.700;38.270;2023-03-11T07:20:41;99310.31;;;-4.13;66.55
55347;BME280;41218;55.700;38.270;2023-03-11T07:25:46;99303.47;;;-4.06;66.60
55347;BME280;41218;55.700;38.270;2023-03-11T07:30:47;99293.44;;;-4.00;66.56
55347;BME280;41218;55.700;38.270;2023-03-11T07:35:47;99295.88;;;-3.98;66.78
55347;BME280;41218;55.700;38.270;2023-03-11T07:40:57;99290.13;;;-3.92;66.90
55347;BME280;41218;55.700;38.270;2023-03-11T07:46:12;99286.53;;;-3.82;66.66
55347;BME280;41218;55.700;38.270;2023-03-11T07:51:15;99279.44;;;-3.73;66.73
55347;BME280;41218;55.700;38.270;2023-03-11T07:56:17;99277.69;;;-3.64;66.48
55347;BME280;41218;55.700;38.270;2023-03-11T08:01:19;99266.25;;;-3.55;66.77
55347;BME280;41218;55.700;38.270;2023-03-11T08:06:23;99257.28;;;-3.51;65.94
55347;BME280;41218;55.700;38.270;2023-03-11T08:11:24;99238.31;;;-3.46;65.93
55347;BME280;41218;55.700;38.270;2023-03-11T08:16:25;99237.78;;;-3.48;65.79
55347;BME280;41218;55.700;38.270;2023-03-11T08:21:27;99229.28;;;-3.36;66.12
55347;BME280;41218;55.700;38.270;2023-03-11T08:26:29;99213.34;;;-3.37;66.33
55347;BME280;41218;55.700;38.270;2023-03-11T08:31:32;99209.03;;;-3.38;65.96
55347;BME280;41218;55.700;38.270;2023-03-11T08:36:33;99192.59;;;-3.42;65.81
55347;BME280;41218;55.700;38.270;2023-03-11T08:41:34;99191.06;;;-3.48;66.31
55347;BME280;41218;55.700;38.270;2023-03-11T08:46:36;99187.84;;;-3.50;66.56
55347;BME280;41218;55.700;38.270;2023-03-11T08:51:37;99178.28;;;-3.43;66.59
55347;BME280;41218;55.700;38.270;2023-03-11T08:56:38;99167.63;;;-3.34;66.61
55347;BME280;41218;55.700;38.270;2023-03-11T09:01:38;99141.31;;;-3.47;66.42
55347;BME280;41218;55.700;38.270;2023-03-11T09:06:43;99168.00;;;-3.22;66.32
55347;BME280;41218;55.700;38.270;2023-03-11T09:11:43;99155.72;;;-3.14;66.46
55347;BME280;41218;55.700;38.270;2023-03-11T09:16:44;99158.03;;;-3.07;66.20
55347;BME280;41218;55.700;38.270;2023-03-11T09:21:45;99143.88;;;-3.18;66.18
55347;BME280;41218;55.700;38.270;2023-03-11T09:26:45;99157.91;;;-3.16;66.43
55347;BME280;41218;55.700;38.270;2023-03-11T09:31:46;99152.19;;;-3.14;66.34
55347;BME280;41218;55.700;38.270;2023-03-11T09:36:47;99151.41;;;-3.15;66.21
55347;BME280;41218;55.700;38.270;2023-03-11T09:52:10;99114.28;;;-3.09;66.19
55347;BME280;41218;55.700;38.270;2023-03-11T09:57:37;99117.19;;;-3.06;65.94
55347;BME280;41218;55.700;38.270;2023-03-11T10:02:38;99098.56;;;-3.07;65.88
55347;BME280;41218;55.700;38.270;2023-03-11T10:07:41;99114.00;;;-3.08;66.24
55347;BME280;41218;55.700;38.270;2023-03-11T10:18:29;99089.88;;;-3.04;65.96
55347;BME280;41218;55.700;38.270;2023-03-11T10:28:49;99077.50;;;-3.10;65.73
55347;BME280;41218;55.700;38.270;2023-03-11T10:34:01;99067.19;;;-3.08;66.28
55347;BME280;41218;55.700;38.270;2023-03-11T10:39:03;99073.50;;;-3.13;65.92
55347;BME280;41218;55.700;38.270;2023-03-11T10:44:21;99050.19;;;-3.09;66.11
55347;BME280;41218;55.700;38.270;2023-03-11T10:49:23;99046.50;;;-2.99;66.28
55347;BME280;41218;55.700;38.270;2023-03-11T10:54:33;99025.38;;;-2.97;66.21
55347;BME280;41218;55.700;38.270;2023-03-11T10:59:46;99006.25;;;-3.00;66.34
55347;BME280;41218;55.700;38.270;2023-03-11T11:04:47;99001.06;;;-2.97;65.89
55347;BME280;41218;55.700;38.270;2023-03-11T11:10:11;98988.53;;;-2.93;66.33
55347;BME280;41218;55.700;38.270;2023-03-11T11:15:27;98983.75;;;-2.96;66.48
55347;BME280;41218;55.700;38.270;2023-03-11T11:20:29;98979.13;;;-2.95;66.50
55347;BME280;41218;55.700;38.270;2023-03-11T11:25:35;98970.72;;;-2.94;66.09
55347;BME280;41218;55.700;38.270;2023-03-11T11:30:36;98968.69;;;-2.88;66.58
55347;BME280;41218;55.700;38.270;2023-03-11T11:35:50;98962.28;;;-2.92;66.65
55347;BME280;41218;55.700;38.270;2023-03-11T11:40:54;98947.06;;;-2.88;66.58
55347;BME280;41218;55.700;38.270;2023-03-11T11:45:58;98943.78;;;-2.85;66.40
55347;BME280;41218;55.700;38.270;2023-03-11T11:51:05;98944.78;;;-2.81;65.90
55347;BME280;41218;55.700;38.270;2023-03-11T11:56:09;98920.03;;;-2.74;66.17
55347;BME280;41218;55.700;38.270;2023-03-11T12:11:33;98913.53;;;-2.73;66.53
55347;BME280;41218;55.700;38.270;2023-03-11T12:16:55;98915.91;;;-2.72;66.60
55347;BME280;41218;55.700;38.270;2023-03-11T12:27:04;98913.19;;;-2.72;66.26
55347;BME280;41218;55.700;38.270;2023-03-11T12:32:21;98913.81;;;-2.75;66.49
55347;BME280;41218;55.700;38.270;2023-03-11T12:37:22;98900.09;;;-2.78;66.38
55347;BME280;41218;55.700;38.270;2023-03-11T12:42:37;98874.47;;;-2.81;66.85
55347;BME280;41218;55.700;38.270;2023-03-11T12:47:38;98881.28;;;-2.84;66.29
55347;BME280;41218;55.700;38.270;2023-03-11T12:52:53;98879.38;;;-2.83;66.38
55347;BME280;41218;55.700;38.270;2023-03-11T12:58:00;98872.16;;;-2.88;66.52
55347;BME280;41218;55.700;38.270;2023-03-11T13:03:46;98870.34;;;-2.92;66.79
55347;BME280;41218;55.700;38.270;2023-03-11T13:08:54;98870.69;;;-2.94;66.62
55347;BME280;41218;55.700;38.270;2023-03-11T13:14:25;98857.16;;;-2.94;66.54
55347;BME280;41218;55.700;38.270;2023-03-11T13:40:28;98814.56;;;-2.88;66.79
55347;BME280;41218;55.700;38.270;2023-03-11T13:45:33;98829.41;;;-2.86;66.79
55347;BME280;41218;55.700;38.270;2023-03-11T13:50:38;98814.75;;;-2.85;66.14
55347;BME280;41218;55.700;38.270;2023-03-11T13:55:43;98811.75;;;-2.83;66.86
55347;BME280;41218;55.700;38.270;2023-03-11T14:00:47;98808.44;;;-2.80;66.39
55347;BME280;41218;55.700;38.270;2023-03-11T14:05:54;98799.31;;;-2.84;66.70
55347;BME280;41218;55.700;38.270;2023-03-11T14:10:58;98803.34;;;-2.82;66.67
55347;BME280;41218;55.700;38.270;2023-03-11T14:21:17;98780.09;;;-2.83;67.01
55347;BME280;41218;55.700;38.270;2023-03-11T14:26:31;98774.59;;;-2.77;66.78
55347;BME280;41218;55.700;38.270;2023-03-11T14:31:37;98773.75;;;-2.78;66.79
55347;BME280;41218;55.700;38.270;2023-03-11T14:41:39;98751.09;;;-2.68;66.99
55347;BME280;41218;55.700;38.270;2023-03-11T14:46:41;98741.41;;;-2.69;67.04
55347;BME280;41218;55.700;38.270;2023-03-11T14:51:42;98746.19;;;-2.66;66.83
55347;BME280;41218;55.700;38.270;2023-03-11T14:56:47;98732.47;;;-2.70;67.13
55347;BME280;41218;55.700;38.270;2023-03-11T15:01:50;98716.13;;;-2.65;66.94
55347;BME280;41218;55.700;38.270;2023-03-11T15:06:51;98713.91;;;-2.63;67.35
55347;BME280;41218;55.700;38.270;2023-03-11T15:11:55;98702.09;;;-2.67;67.31
55347;BME280;41218;55.700;38.270;2023-03-11T15:17:16;98703.38;;;-2.64;67.30
55347;BME280;41218;55.700;38.270;2023-03-11T15:22:25;98695.28;;;-2.64;67.60
55347;BME280;41218;55.700;38.270;2023-03-11T15:27:36;98710.72;;;-2.65;67.24
55347;BME280;41218;55.700;38.270;2023-03-11T15:32:42;98696.06;;;-2.64;67.41
55347;BME280;41218;55.700;38.270;2023-03-11T15:37:43;98696.59;;;-2.62;67.19
55347;BME280;41218;55.700;38.270;2023-03-11T15:42:45;98700.88;;;-2.60;67.07
55347;BME280;41218;55.700;38.270;2023-03-11T15:47:46;98692.44;;;-2.59;67.97
55347;BME280;41218;55.700;38.270;2023-03-11T15:52:47;98680.03;;;-2.60;67.36
55347;BME280;41218;55.700;38.270;2023-03-11T15:57:49;98678.13;;;-2.59;67.62
55347;BME280;41218;55.700;38.270;2023-03-11T16:02:51;98668.59;;;-2.57;67.68
55347;BME280;41218;55.700;38.270;2023-03-11T16:07:53;98648.22;;;-2.54;67.77
55347;BME280;41218;55.700;38.270;2023-03-11T16:12:54;98629.97;;;-2.49;67.22
55347;BME280;41218;55.700;38.270;2023-03-11T16:17:57;98610.22;;;-2.49;67.48
55347;BME280;41218;55.700;38.270;2023-03-11T16:22:58;98601.94;;;-2.53;67.71
55347;BME280;41218;55.700;38.270;2023-03-11T16:28:01;98604.19;;;-2.46;67.53
55347;BME280;41218;55.700;38.270;2023-03-11T16:33:02;98587.94;;;-2.46;68.16
55347;BME280;41218;55.700;38.270;2023-03-11T16:38:02;98576.50;;;-2.43;68.36
55347;BME280;41218;55.700;38.270;2023-03-11T16:43:08;98576.34;;;-2.38;67.85
55347;BME280;41218;55.700;38.270;2023-03-11T16:48:09;98577.63;;;-2.35;67.90
55347;BME280;41218;55.700;38.270;2023-03-11T16:53:09;98563.00;;;-2.34;68.02
55347;BME280;41218;55.700;38.270;2023-03-11T16:58:10;98551.53;;;-2.31;68.12
55347;BME280;41218;55.700;38.270;2023-03-11T17:03:12;98534.50;;;-2.32;67.89
55347;BME280;41218;55.700;38.270;2023-03-11T17:08:13;98525.44;;;-2.27;68.11
55347;BME280;41218;55.700;38.270;2023-03-11T17:13:14;98518.28;;;-2.23;68.17
55347;BME280;41218;55.700;38.270;2023-03-11T17:18:15;98505.38;;;-2.26;68.47
55347;BME280;41218;55.700;38.270;2023-03-11T17:23:16;98498.09;;;-2.17;68.12
55347;BME280;41218;55.700;38.270;2023-03-11T17:28:16;98503.34;;;-2.12;68.51
55347;BME280;41218;55.700;38.270;2023-03-11T17:33:17;98485.53;;;-2.13;67.99
55347;BME280;41218;55.700;38.270;2023-03-11T17:38:18;98482.03;;;-2.05;68.30
55347;BME280;41218;55.700;38.270;2023-03-11T17:43:19;98475.16;;;-2.02;68.06
55347;BME280;41218;55.700;38.270;2023-03-11T17:48:19;98458.91;;;-2.02;68.24
55347;BME280;41218;55.700;38.270;2023-03-11T17:53:20;98445.56;;;-1.98;68.45
55347;BME280;41218;55.700;38.270;2023-03-11T17:58:21;98446.16;;;-1.93;68.40
55347;BME280;41218;55.700;38.270;2023-03-11T18:03:22;98440.44;;;-1.91;68.77
55347;BME280;41218;55.700;38.270;2023-03-11T18:08:22;98424.66;;;-1.89;68.85
55347;BME280;41218;55.700;38.270;2023-03-11T18:13:23;98413.69;;;-1.84;69.08
55347;BME280;41218;55.700;38.270;2023-03-11T18:18:24;98399.63;;;-1.77;69.18
55347;BME280;41218;55.700;38.270;2023-03-11T18:23:24;98391.19;;;-1.76;69.01
55347;BME280;41218;55.700;38.270;2023-03-11T18:28:25;98390.69;;;-1.69;69.02
55347;BME280;41218;55.700;38.270;2023-03-11T18:33:26;98379.56;;;-1.68;68.47
55347;BME280;41218;55.700;38.270;2023-03-11T18:38:27;98379.72;;;-1.64;69.33
55347;BME280;41218;55.700;38.270;2023-03-11T18:43:28;98381.13;;;-1.58;68.95
55347;BME280;41218;55.700;38.270;2023-03-11T18:48:29;98375.03;;;-1.55;69.37
55347;BME280;41218;55.700;38.270;2023-03-11T18:53:29;98362.75;;;-1.52;69.28
55347;BME280;41218;55.700;38.270;2023-03-11T18:58:31;98360.34;;;-1.45;69.48
55347;BME280;41218;55.700;38.270;2023-03-11T19:03:32;98349.66;;;-1.42;69.82
55347;BME280;41218;55.700;38.270;2023-03-11T19:08:33;98342.94;;;-1.35;69.98
55347;BME280;41218;55.700;38.270;2023-03-11T19:13:34;98319.16;;;-1.30;70.34
55347;BME280;41218;55.700;38.270;2023-03-11T19:18:38;98306.88;;;-1.27;70.03
55347;BME280;41218;55.700;38.270;2023-03-11T19:23:39;98294.72;;;-1.21;69.97
55347;BME280;41218;55.700;38.270;2023-03-11T19:28:40;98288.50;;;-1.22;70.43
55347;BME280;41218;55.700;38.270;2023-03-11T19:33:41;98283.97;;;-1.09;70.77
55347;BME280;41218;55.700;38.270;2023-03-11T19:38:42;98258.56;;;-1.04;69.78
55347;BME280;41218;55.700;38.270;2023-03-11T19:43:44;98245.47;;;-1.02;70.10
55347;BME280;41218;55.700;38.270;2023-03-11T19:48:45;98235.22;;;-0.96;70.26
55347;BME280;41218;55.700;38.270;2023-03-11T19:53:46;98224.16;;;-0.91;70.47
55347;BME280;41218;55.700;38.270;2023-03-11T19:58:47;98214.50;;;-0.80;70.79
55347;BME280;41218;55.700;38.270;2023-03-11T20:03:47;98196.75;;;-0.77;71.07
55347;BME280;41218;55.700;38.270;2023-03-11T20:08:49;98180.88;;;-0.67;71.08
55347;BME280;41218;55.700;38.270;2023-03-11T20:13:49;98181.81;;;-0.63;73.14
55347;BME280;41218;55.700;38.270;2023-03-11T20:18:50;98165.97;;;-0.61;71.53
55347;BME280;41218;55.700;38.270;2023-03-11T20:23:55;98154.91;;;-0.55;71.54
55347;BME280;41218;55.700;38.270;2023-03-11T20:28:56;98150.50;;;-0.48;71.72
55347;BME280;41218;55.700;38.270;2023-03-11T20:33:57;98138.31;;;-0.42;72.12
55347;BME280;41218;55.700;38.270;2023-03-11T20:38:58;98120.53;;;-0.39;72.34
55347;BME280;41218;55.700;38.270;2023-03-11T20:43:59;98121.13;;;-0.33;72.45
55347;BME280;41218;55.700;38.270;2023-03-11T20:49:00;98099.53;;;-0.30;72.98
55347;BME280;41218;55.700;38.270;2023-03-11T20:54:01;98078.72;;;-0.26;72.87
55347;BME280;41218;55.700;38.270;2023-03-11T20:59:01;98065.47;;;-0.27;73.11
55347;BME280;41218;55.700;38.270;2023-03-11T21:04:02;98062.56;;;-0.22;73.49
55347;BME280;41218;55.700;38.270;2023-03-11T21:09:05;98058.69;;;-0.09;73.50
55347;BME280;41218;55.700;38.270;2023-03-11T21:14:07;98046.00;;;-0.05;73.58
55347;BME280;41218;55.700;38.270;2023-03-11T21:19:07;98031.41;;;0.00;73.87
55347;BME280;41218;55.700;38.270;2023-03-11T21:24:10;98025.41;;;0.07;73.82
55347;BME280;41218;55.700;38.270;2023-03-11T21:29:11;98008.06;;;0.11;74.04
55347;BME280;41218;55.700;38.270;2023-03-11T21:34:12;97981.78;;;0.15;73.92
55347;BME280;41218;55.700;38.270;2023-03-11T21:39:12;97961.72;;;0.20;73.87
55347;BME280;41218;55.700;38.270;2023-03-11T21:44:14;97951.41;;;0.26;74.54
55347;BME280;41218;55.700;38.270;2023-03-11T21:49:14;97944.16;;;0.30;74.27
55347;BME280;41218;55.700;38.270;2023-03-11T21:54:15;97925.56;;;0.32;74.76
55347;BME280;41218;55.700;38.270;2023-03-11T21:59:15;97909.03;;;0.37;75.00
55347;BME280;41218;55.700;38.270;2023-03-11T22:04:16;97902.44;;;0.38;75.18
55347;BME280;41218;55.700;38.270;2023-03-11T22:09:17;97914.63;;;0.44;74.99
55347;BME280;41218;55.700;38.270;2023-03-11T22:14:17;97894.22;;;0.50;75.04
55347;BME280;41218;55.700;38.270;2023-03-11T22:19:18;97877.91;;;0.50;75.44
55347;BME280;41218;55.700;38.270;2023-03-11T22:24:18;97868.63;;;0.51;75.50
55347;BME280;41218;55.700;38.270;2023-03-11T22:29:19;97855.56;;;0.57;75.79
55347;BME280;41218;55.700;38.270;2023-03-11T22:34:19;97848.63;;;0.59;76.10
55347;BME280;41218;55.700;38.270;2023-03-11T22:39:20;97837.50;;;0.65;75.17
55347;BME280;41218;55.700;38.270;2023-03-11T22:44:20;97831.38;;;0.68;75.92
55347;BME280;41218;55.700;38.270;2023-03-11T22:49:21;97814.34;;;0.71;75.70
55347;BME280;41218;55.700;38.270;2023-03-11T22:54:21;97808.19;;;0.74;75.80
55347;BME280;41218;55.700;38.270;2023-03-11T22:59:22;97791.59;;;0.79;75.59
55347;BME280;41218;55.700;38.270;2023-03-11T23:04:26;97772.50;;;0.75;75.84
55347;BME280;41218;55.700;38.270;2023-03-11T23:09:26;97775.03;;;0.84;76.03
55347;BME280;41218;55.700;38.270;2023-03-11T23:14:27;97756.06;;;0.88;76.38
55347;BME280;41218;55.700;38.270;2023-03-11T23:19:28;97758.38;;;0.86;76.09
55347;BME280;41218;55.700;38.270;2023-03-11T23:24:28;97746.94;;;0.96;75.98
55347;BME280;41218;55.700;38.270;2023-03-11T23:29:30;97727.25;;;1.03;76.41
55347;BME280;41218;55.700;38.270;2023-03-11T23:34:30;97720.72;;;1.07;77.45
55347;BME280;41218;55.700;38.270;2023-03-11T23:39:31;97696.53;;;1.02;76.50
55347;BME280;41218;55.700;38.270;2023-03-11T23:44:31;97699.47;;;1.13;76.25
55347;BME280;41218;55.700;38.270;2023-03-11T23:49:32;97694.81;;;1.13;76.85
55347;BME280;41218;55.700;38.270;2023-03-11T23:54:32;97679.72;;;1.16;77.20
55347;BME280;41218;55.700;38.270;2023-03-11T23:59:33;97667.03;;;1.24;76.63
